Forside
METAR-TAF:

METAR-TAF

Lufthavne :

Malé, Maldiverne

Breddekreds: 04-12N, længdekreds: 073-32E, højde: 2 m

Aktuelle vejr

Denne rapport blev lavet for 27 minutter siden, kl. 13:00 UTC
Vind 7 kt fra østnordøst
Temperatur 29°C
Fugtighed 70%
Tryk 1010 hPa
Sigt: 9000 m
Nogle få skyer i en højde af 1800 ft
Brudte skyer i en højde af 28000 ft

METAR: VRMM 191300Z 06007KT 9000 FEW018 BKN280 29/23 Q1010 NOSIG

Tid: 18:27 (13:27 UTC)

Vejrudsigter

Denne rapport blev lavet for 2 timer og 27 minutter siden, kl. 11:00 UTC
Foreløbig gælder fra 19 på 12 UTC til 20 på 18 UTC
Vind 8 kt fra østnordøst
Sigt: 9000 m
Nogle få skyer i en højde af 1900 ft
Midlertidig
fra 19 på 12 UTC til 19 på 18 UTC
Nogle få skyer i en højde af 1900 ft, Cumulonimbus.

TAF: VRMM 191100Z 1912/2018 06008KT 9000 FEW019 TEMPO 1912/1918 FEW019CB

Vejrobservationer og prognoser fra mere end 4000 lufthavne (METAR og TAF).

De gule og røde prikker repræsenterer de meteorologiske stationer.

Flyt musen over at se navnet på stationen.

Så klik over at se vejr observationer og prognoser.

At skifte det kort: Klik på de grønne knapper med et sort kors for at zoome ind; på den grønne knap med en bindestreg for at zoome ud; eller på de grønne pile for tilstødende kort.


METAR-TAF: